Latest Weather Observations for Brisbane

IDQ60801

Issued at 10:32 pm EST Saturday 13 February 2016 (issued every 30 minutes, with the page automatically refreshed every 10 minutes)

About weather observations | Map of weather stations | Latest weather observations for QLD | Other Formats
Station Details ID: 040913 Name: BRISBANE Lat: -27.48 Lon: 153.04 Height: 8.13 m
Data from the previous 72 hours. | See also: Recent months at Brisbane
Date/Time
EST
Temp
°C
App
Temp
°C
Dew
Point
Rel
Hum
%
Delta-T
°C
Wind Press
QNH
hPa
Press
MSL
hPa
Rain
since 9 am
mm
Dir
 
Spd
km/h
Gust
km/h
Spd
kts
Gust
kts
13/10:30pm 23.2 24.3 16.7 67 4.0 S 6 15 3 8 1010.6 1010.6 0.2
13/10:00pm 23.4 24.4 16.9 67 4.0 S 7 15 4 8 1010.6 1010.6 0.2
13/09:30pm 23.5 24.6 17.0 67 4.0 S 7 13 4 7 1010.7 1010.7 0.2
13/09:00pm 23.8 25.1 17.5 68 3.9 SE 7 17 4 9 1010.8 1010.8 0.2
13/08:30pm 24.1 25.1 17.8 68 3.9 SE 9 17 5 9 1010.9 1010.9 0.2
13/08:00pm 24.2 25.6 17.9 68 3.9 SE 7 15 4 8 1010.9 1010.9 0.2
13/07:30pm 24.6 26.2 17.8 66 4.3 SSE 6 11 3 6 1010.5 1010.5 0.2
13/07:00pm 24.9 26.0 18.1 66 4.3 SE 9 15 5 8 1010.2 1010.1 0.2
13/06:30pm 25.3 26.1 18.2 64 4.5 SSE 11 20 6 11 1009.9 1009.8 0.2
13/06:00pm 25.6 26.5 18.3 64 4.6 SE 11 20 6 11 1009.7 1009.6 0.2
13/05:30pm 25.9 26.3 18.1 62 4.9 SE 13 26 7 14 1009.6 1009.5 0.2
13/05:00pm 26.3 26.2 17.9 60 5.3 SE 15 32 8 17 1009.7 1009.6 0.2
13/04:30pm 26.5 26.5 18.1 60 5.3 SE 15 30 8 16 1009.5 1009.4 0.2
13/04:00pm 26.7 26.3 18.0 59 5.5 SE 17 30 9 16 1009.5 1009.4 0.2
13/03:30pm 27.5 27.9 18.2 57 5.9 SE 13 24 7 13 1009.4 1009.3 0.2
13/03:00pm 27.4 27.7 17.8 55 6.1 SE 13 24 7 13 1009.4 1009.3 0.2
13/02:30pm 27.1 26.1 17.6 56 6.0 SE 19 33 10 18 1009.5 1009.4 0.2
13/02:00pm 27.9 28.5 18.6 57 6.0 SE 13 24 7 13 1009.5 1009.4 0.2
13/01:30pm 28.8 29.4 19.4 56 6.1 SE 15 28 8 15 1009.7 1009.6 0.2
13/01:00pm 27.1 28.4 19.2 62 5.1 SE 11 26 6 14 1010.4 1010.4 0.2
13/12:30pm 25.3 26.6 20.1 73 3.4 SE 13 24 7 13 1011.1 1011.1 0.2
13/12:00pm 23.9 24.9 20.2 80 2.4 SE 15 35 8 19 1011.5 1011.5 0.2
13/11:30am 25.6 25.8 18.5 65 4.5 SE 15 35 8 19 1011.4 1011.4 0.0
13/11:00am 25.3 25.5 18.5 66 4.3 SSE 15 26 8 14 1011.4 1011.4 0.0
13/10:30am 26.6 26.6 18.2 60 5.3 SE 15 24 8 13 1011.2 1011.2 0.0
13/10:00am 25.8 26.8 17.7 61 5.1 SE 9 19 5 10 1011.5 1011.5 0.0
13/09:30am 26.4 26.5 16.6 55 6.1 SSE 11 19 6 10 1011.5 1011.5 0.0
13/09:00am 26.8 27.7 16.7 54 6.3 S 7 17 4 9 1011.5 1011.5 0.0
13/08:30am 25.4 26.4 16.8 59 5.3 SSW 7 17 4 9 1011.7 1011.7 0.0
13/08:00am 24.6 25.6 16.8 62 4.8 SSW 7 19 4 10 1011.7 1011.7 0.0
13/07:30am 22.7 24.0 17.2 71 3.4 SW 6 9 3 5 1011.8 1011.8 0.0
13/07:00am 21.9 23.2 17.1 74 2.9 WSW 6 13 3 7 1011.8 1011.8 0.0
13/06:30am 21.2 22.4 16.8 76 2.7 WSW 6 11 3 6 1011.5 1011.5 0.0
13/06:00am 20.8 22.1 17.0 79 2.3 WSW 6 11 3 6 1011.0 1011.0 0.0
13/05:30am 20.6 22.1 16.6 78 2.4 SW 4 9 2 5 1010.7 1010.7 0.0
13/05:00am 20.8 21.8 16.8 78 2.4 WSW 7 13 4 7 1010.6 1010.6 0.0
13/04:30am 20.8 22.0 16.8 78 2.4 SW 6 11 3 6 1010.5 1010.5 0.0
13/04:00am 21.1 22.7 16.9 77 2.6 SW 4 7 2 4 1010.7 1010.7 0.0
13/03:30am 21.1 22.6 16.7 76 2.7 SW 4 7 2 4 1010.8 1010.8 0.0
13/03:00am 21.1 22.5 16.5 75 2.8 WSW 4 7 2 4 1011.1 1011.1 0.0
13/02:30am 21.4 22.4 16.4 73 3.0 SW 6 13 3 7 1011.1 1011.1 0.0
13/02:00am 21.4 22.7 16.1 72 3.2 SW 4 9 2 5 1011.1 1011.1 0.0
13/01:30am 21.5 22.4 16.2 72 3.2 W 6 13 3 7 1011.4 1011.4 0.0
13/01:00am 21.9 22.8 16.0 69 3.6 SW 6 13 3 7 1011.3 1011.3 0.0
13/12:30am 22.4 23.7 16.2 68 3.8 WSW 4 7 2 4 1011.9 1011.9 0.0
13/12:00am 23.0 24.4 16.3 66 4.1 SW 4 7 2 4 1012.2 1012.2 0.0
 
Date/Time
EST
Temp
°C
App
Temp
°C
Dew
Point
Rel
Hum
%
Delta-T
°C
Wind Press
QNH
hPa
Press
MSL
hPa
Rain
since 9 am
mm
Dir
 
Spd
km/h
Gust
km/h
Spd
kts
Gust
kts
12/11:30pm 23.3 24.4 16.6 66 4.1 S 6 9 3 5 1012.5 1012.5 0.0
12/11:00pm 23.7 25.4 17.2 67 4.0 S 4 9 2 5 1012.9 1012.9 0.0
12/10:30pm 23.8 25.2 17.3 67 4.0 S 6 9 3 5 1013.3 1013.3 0.0
12/10:00pm 23.8 25.2 17.3 67 4.0 SSE 6 13 3 7 1013.2 1013.2 0.0
12/09:30pm 24.1 25.4 17.6 67 4.0 S 7 19 4 10 1013.3 1013.3 0.0
12/09:00pm 24.3 25.3 17.8 67 4.1 SSE 9 19 5 10 1013.3 1013.3 0.0
12/08:30pm 24.6 25.4 17.3 64 4.5 SE 9 22 5 12 1013.3 1013.3 0.0
12/08:00pm 24.6 25.7 17.1 63 4.6 SSE 7 13 4 7 1013.0 1013.0 0.0
12/07:30pm 24.9 25.6 17.1 62 4.8 SE 9 19 5 10 1012.9 1012.9 0.0
12/07:00pm 25.2 25.7 16.6 59 5.3 SE 9 20 5 11 1012.9 1012.9 0.0
12/06:30pm 25.9 25.3 15.6 53 6.3 SE 13 28 7 15 1012.7 1012.7 0.0
12/06:00pm 26.8 26.0 15.2 49 7.0 SE 13 24 7 13 1012.4 1012.4 0.0
12/05:30pm 27.1 25.4 14.8 47 7.4 SE 17 39 9 21 1012.2 1012.2 0.0
12/05:00pm 27.6 25.8 15.6 48 7.3 SE 19 32 10 17 1011.9 1011.9 0.0
12/04:30pm 27.9 26.3 14.9 45 7.9 ESE 17 30 9 16 1011.6 1011.6 0.0
12/04:00pm 29.4 28.3 17.2 47 7.7 SSE 19 39 10 21 1011.3 1011.3 0.0
12/03:30pm 29.0 28.0 16.5 46 7.8 ESE 17 35 9 19 1011.3 1011.3 0.0
12/03:00pm 29.3 28.7 17.5 49 7.5 SE 17 39 9 21 1011.4 1011.4 0.0
12/02:30pm 28.9 28.2 17.4 49 7.3 SE 17 28 9 15 1011.4 1011.4 0.0
12/02:00pm 28.9 28.5 18.1 52 6.9 ESE 17 32 9 17 1011.5 1011.5 0.0
12/01:30pm 29.7 29.7 18.2 50 7.4 ESE 15 28 8 15 1011.6 1011.6 0.0
12/01:00pm 29.4 28.8 17.6 49 7.5 ESE 17 32 9 17 1011.8 1011.8 0.0
12/12:30pm 29.6 28.9 17.4 47 7.7 SE 17 28 9 15 1011.8 1011.8 0.0
12/12:00pm 28.3 27.4 16.9 50 7.1 ESE 17 32 9 17 1012.2 1012.2 0.0
12/11:30am 30.0 30.0 18.1 49 7.6 SE 15 26 8 14 1012.3 1012.3 0.0
12/11:00am 29.8 29.6 17.6 48 7.8 ESE 15 26 8 14 1012.6 1012.6 0.0
12/10:30am 27.4 27.6 17.6 55 6.2 SE 13 32 7 17 1012.9 1012.9 0.0
12/10:00am 28.3 28.1 17.5 52 6.8 SE 15 32 8 17 1013.1 1013.1 0.0
12/09:30am 27.8 28.4 18.5 57 5.9 ESE 13 24 7 13 1013.1 1013.1 0.0
12/09:00am 27.4 27.9 18.4 58 5.7 SSE 13 26 7 14 1013.2 1013.2 0.0
12/08:30am 26.1 27.3 18.2 61 5.0 S 9 15 5 8 1013.3 1013.3 0.0
12/08:00am 25.4 27.0 17.8 62 4.8 SW 6 11 3 6 1013.5 1013.5 0.0
12/07:30am 23.5 25.5 17.9 71 3.5 SW 4 9 2 5 1013.5 1013.5 0.0
12/07:00am 22.7 24.5 17.4 72 3.3 SW 4 9 2 5 1013.4 1013.4 0.0
12/06:30am 22.4 24.5 17.3 73 3.1 SSW 2 4 1 2 1013.1 1013.1 0.0
12/06:00am 21.1 23.2 17.3 79 2.3 SW 2 6 1 3 1013.0 1013.0 0.0
12/05:30am 21.1 22.9 17.3 79 2.3 SW 4 7 2 4 1012.9 1012.9 0.0
12/05:00am 21.1 22.8 17.1 78 2.4 SW 4 9 2 5 1012.8 1012.8 0.0
12/04:30am 21.3 23.1 17.5 79 2.3 SW 4 9 2 5 1012.5 1012.5 0.0
12/04:00am 21.3 23.1 17.3 78 2.5 WSW 4 7 2 4 1012.4 1012.4 0.0
12/03:30am 21.5 23.3 17.3 77 2.6 SW 4 9 2 5 1012.4 1012.4 0.0
12/03:00am 21.5 23.3 17.3 77 2.6 SW 4 6 2 3 1012.6 1012.6 0.0
12/02:30am 21.9 23.7 17.5 76 2.7 SW 4 9 2 5 1012.6 1012.6 0.0
12/02:00am 22.0 24.2 17.4 75 2.8 SW 2 6 1 3 1012.6 1012.6 0.0
12/01:30am 22.5 24.0 17.6 74 3.0 SW 6 9 3 5 1012.8 1012.8 0.0
12/01:00am 22.7 24.8 18.0 75 2.9 SW 4 7 2 4 1012.9 1012.9 0.0
12/12:30am 22.9 25.0 18.0 74 3.1 SSW 4 7 2 4 1012.9 1012.9 0.0
12/12:00am 23.0 25.1 18.1 74 3.1 SW 4 7 2 4 1013.0 1013.0 0.0
 
Date/Time
EST
Temp
°C
App
Temp
°C
Dew
Point
Rel
Hum
%
Delta-T
°C
Wind Press
QNH
hPa
Press
MSL
hPa
Rain
since 9 am
mm
Dir
 
Spd
km/h
Gust
km/h
Spd
kts
Gust
kts
11/11:30pm 23.3 26.0 18.6 75 3.0 SW 2 6 1 3 1013.2 1013.2 0.0
11/11:00pm 23.5 25.8 18.6 74 3.1 S 4 7 2 4 1013.5 1013.5 0.0
11/10:30pm 23.4 26.0 18.5 74 3.1 S 2 6 1 3 1013.6 1013.6 0.0
11/10:00pm 23.4 26.0 18.5 74 3.1 SSE 2 6 1 3 1013.7 1013.7 0.0
11/09:30pm 23.8 26.0 18.4 72 3.4 SSE 4 7 2 4 1013.6 1013.6 0.0
11/09:00pm 24.1 26.6 19.0 73 3.2 ESE 4 11 2 6 1013.5 1013.5 0.0
11/08:30pm 24.3 26.7 18.9 72 3.4 ESE 4 9 2 5 1013.5 1013.5 0.0
11/08:00pm 24.6 26.6 18.8 70 3.7 SE 6 11 3 6 1013.3 1013.3 0.0
11/07:30pm 24.9 26.4 18.8 69 3.9 ESE 9 17 5 9 1013.1 1013.1 0.0
11/07:00pm 25.1 26.0 18.3 66 4.3 ESE 11 22 6 12 1012.7 1012.7 0.0
11/06:30pm 25.6 25.9 18.0 63 4.8 ESE 13 24 7 13 1012.5 1012.5 0.0
11/06:00pm 26.1 25.5 17.5 59 5.4 E 17 28 9 15 1012.0 1012.0 0.0
11/05:30pm 26.9 26.6 17.4 56 6.0 ESE 15 30 8 16 1011.4 1011.4 0.0
11/05:00pm 26.9 26.1 17.1 55 6.1 ESE 17 26 9 14 1011.2 1011.2 0.0
11/04:30pm 28.3 27.8 16.9 50 7.1 ESE 15 28 8 15 1011.0 1011.0 0.0
11/04:00pm 28.8 27.5 16.7 48 7.6 ESE 19 28 10 15 1010.8 1010.8 0.0
11/03:30pm 29.2 28.9 17.4 49 7.5 ESE 15 28 8 15 1010.8 1010.8 0.0
11/03:00pm 29.9 29.9 18.0 48 7.6 ESE 15 24 8 13 1010.7 1010.7 0.0
11/02:30pm 30.2 30.0 17.6 46 8.0 ESE 15 24 8 13 1010.8 1010.8 0.0
11/02:00pm 29.3 29.1 17.5 49 7.5 ESE 15 24 8 13 1011.0 1011.0 0.0
11/01:30pm 30.9 31.2 17.9 45 8.3 SE 13 26 7 14 1011.0 1011.0 0.0
11/01:00pm 29.1 29.0 17.0 48 7.6 E 13 24 7 13 1011.5 1011.5 0.0
11/12:30pm 29.2 28.8 18.0 51 7.1 E 17 33 9 18 1012.2 1012.2 0.0
11/12:00pm 29.5 30.1 17.7 49 7.5 ESE 11 20 6 11 1012.4 1012.4 0.0
11/11:30am 29.1 29.8 17.9 50 7.1 ESE 11 24 6 13 1012.6 1012.6 0.0
11/11:00am 29.1 29.4 17.9 50 7.1 ESE 13 24 7 13 1012.5 1012.5 0.0
11/10:30am 28.7 29.4 17.9 52 6.9 SE 11 24 6 13 1012.7 1012.7 0.0
11/10:00am 27.7 28.1 17.3 53 6.5 SE 11 22 6 12 1013.0 1013.0 0.0
11/09:30am 27.8 29.0 17.3 52 6.6 SE 7 19 4 10 1013.0 1013.0 0.0
11/09:00am 27.5 28.7 19.0 59 5.5 SE 11 19 6 10 1013.1 1013.1 0.0
11/08:30am 27.2 28.9 19.3 62 5.1 SE 9 15 5 8 1013.1 1013.1 0.0
11/08:00am 25.4 27.3 18.6 66 4.3 WSW 6 9 3 5 1013.2 1013.2 0.0
11/07:30am 24.5 26.3 18.2 68 4.0 SSW 6 11 3 6 1013.2 1013.2 0.0
11/07:00am 23.1 25.1 17.8 72 3.3 SW 4 9 2 5 1013.0 1013.0 0.0
11/06:30am 21.8 23.9 18.0 79 2.4 WSW 4 9 2 5 1012.8 1012.8 0.0
11/06:00am 20.8 22.9 18.0 84 1.7 WSW 4 7 2 4 1012.6 1012.6 0.0
11/05:30am 20.4 22.7 17.6 84 1.7 SW 2 6 1 3 1012.4 1012.4 0.0
11/05:00am 20.4 22.2 17.4 83 1.8 W 4 9 2 5 1012.1 1012.1 0.0
11/04:30am 20.8 23.0 17.4 81 2.1 WSW 2 6 1 3 1011.9 1011.9 0.0
11/04:00am 21.1 22.9 17.5 80 2.2 SW 4 7 2 4 1011.7 1011.7 0.0
11/03:30am 21.3 23.2 17.7 80 2.2 WSW 4 11 2 6 1011.6 1011.6 0.0
11/03:00am 21.4 23.3 17.6 79 2.3 WSW 4 7 2 4 1011.6 1011.6 0.0
11/02:30am 22.1 24.1 17.9 77 2.6 WSW 4 9 2 5 1011.8 1011.8 0.0
11/02:00am 22.1 24.6 18.1 78 2.5 SW 2 7 1 4 1012.1 1012.1 0.0
11/01:30am 22.4 24.8 18.0 76 2.7 SW 2 4 1 2 1012.3 1012.3 0.0
11/01:00am 22.9 25.1 18.4 76 2.8 SSW 4 9 2 5 1012.6 1012.6 0.0
11/12:30am 23.1 25.0 18.6 76 2.8 SE 6 9 3 5 1012.9 1012.9 0.0
11/12:00am 23.1 25.1 18.8 77 2.7 SSE 6 11 3 6 1013.2 1013.2 0.0
 
Date/Time
EST
Temp
°C
App
Temp
°C
Dew
Point
Rel
Hum
%
Delta-T
°C
Wind Press
QNH
hPa
Press
MSL
hPa
Rain
since 9 am
mm
Dir
 
Spd
km/h
Gust
km/h
Spd
kts
Gust
kts
10/11:30pm 23.1 25.3 19.1 78 2.5 SE 6 15 3 8 1013.5 1013.5 0.0
10/11:00pm 23.0 24.8 18.7 77 2.7 SE 7 17 4 9 1013.7 1013.7 0.0

Other Formats:

Comma delimited format used in spreadsheet applications
http://www.bom.gov.au/fwo/IDQ60801/IDQ60801.94576.axf

JavaScript Object Notation format (JSON) in row-major order
http://www.bom.gov.au/fwo/IDQ60801/IDQ60801.94576.json